sensor_id;sensor_type;location;lat;lon;timestamp;temperature;humidity
12291;DHT22;6208;48.956;9.076;2023-11-21T00:00:16;9.30;99.90
12291;DHT22;6208;48.956;9.076;2023-11-21T00:03:01;9.80;99.90
12291;DHT22;6208;48.956;9.076;2023-11-21T00:08:31;9.30;99.90
12291;DHT22;6208;48.956;9.076;2023-11-21T00:11:15;9.40;99.90
12291;DHT22;6208;48.956;9.076;2023-11-21T00:13:59;9.40;99.90
12291;DHT22;6208;48.956;9.076;2023-11-21T00:19:29;9.30;99.90
12291;DHT22;6208;48.956;9.076;2023-11-21T00:22:13;9.30;99.90
12291;DHT22;6208;48.956;9.076;2023-11-21T00:24:57;9.30;99.90
12291;DHT22;6208;48.956;9.076;2023-11-21T00:27:42;9.20;99.90
12291;DHT22;6208;48.956;9.076;2023-11-21T00:30:26;9.60;99.90
12291;DHT22;6208;48.956;9.076;2023-11-21T00:33:10;9.20;99.90
12291;DHT22;6208;48.956;9.076;2023-11-21T00:35:55;9.10;99.90
12291;DHT22;6208;48.956;9.076;2023-11-21T00:38:39;9.10;99.90
12291;DHT22;6208;48.956;9.076;2023-11-21T00:41:24;9.10;99.90
12291;DHT22;6208;48.956;9.076;2023-11-21T00:44:11;9.20;99.90
12291;DHT22;6208;48.956;9.076;2023-11-21T00:49:40;9.20;99.90
12291;DHT22;6208;48.956;9.076;2023-11-21T00:52:24;9.20;99.90
12291;DHT22;6208;48.956;9.076;2023-11-21T00:55:08;9.30;99.90
12291;DHT22;6208;48.956;9.076;2023-11-21T00:57:52;9.30;99.90
12291;DHT22;6208;48.956;9.076;2023-11-21T01:00:36;9.40;99.90
12291;DHT22;6208;48.956;9.076;2023-11-21T01:03:23;9.20;99.90
12291;DHT22;6208;48.956;9.076;2023-11-21T01:06:08;9.20;99.90
12291;DHT22;6208;48.956;9.076;2023-11-21T01:11:37;9.10;99.90
12291;DHT22;6208;48.956;9.076;2023-11-21T01:14:21;9.10;99.90
12291;DHT22;6208;48.956;9.076;2023-11-21T01:22:35;9.10;99.90
12291;DHT22;6208;48.956;9.076;2023-11-21T01:25:20;9.00;99.90
12291;DHT22;6208;48.956;9.076;2023-11-21T01:28:05;9.10;99.90
12291;DHT22;6208;48.956;9.076;2023-11-21T01:33:34;9.30;99.90
12291;DHT22;6208;48.956;9.076;2023-11-21T01:36:18;9.20;99.90
12291;DHT22;6208;48.956;9.076;2023-11-21T01:39:02;9.20;99.90
12291;DHT22;6208;48.956;9.076;2023-11-21T01:47:20;9.20;99.90
12291;DHT22;6208;48.956;9.076;2023-11-21T01:50:10;9.20;99.90
12291;DHT22;6208;48.956;9.076;2023-11-21T01:52:56;9.70;99.90
12291;DHT22;6208;48.956;9.076;2023-11-21T01:55:42;9.50;99.90
12291;DHT22;6208;48.956;9.076;2023-11-21T01:58:27;9.20;99.90
12291;DHT22;6208;48.956;9.076;2023-11-21T02:03:56;9.30;99.90
12291;DHT22;6208;48.956;9.076;2023-11-21T02:09:28;9.20;99.90
12291;DHT22;6208;48.956;9.076;2023-11-21T02:15:00;9.30;99.90
12291;DHT22;6208;48.956;9.076;2023-11-21T02:17:44;9.30;99.90
12291;DHT22;6208;48.956;9.076;2023-11-21T02:20:28;9.40;99.90
12291;DHT22;6208;48.956;9.076;2023-11-21T02:23:13;9.60;99.90
12291;DHT22;6208;48.956;9.076;2023-11-21T02:25:58;9.40;99.90
12291;DHT22;6208;48.956;9.076;2023-11-21T02:28:43;9.40;99.90
12291;DHT22;6208;48.956;9.076;2023-11-21T02:34:11;9.30;99.90
12291;DHT22;6208;48.956;9.076;2023-11-21T02:36:57;9.30;99.90
12291;DHT22;6208;48.956;9.076;2023-11-21T02:42:26;9.70;99.90
12291;DHT22;6208;48.956;9.076;2023-11-21T02:45:10;9.40;99.90
12291;DHT22;6208;48.956;9.076;2023-11-21T02:50:40;9.70;99.90
12291;DHT22;6208;48.956;9.076;2023-11-21T02:53:27;9.40;99.90
12291;DHT22;6208;48.956;9.076;2023-11-21T02:56:11;9.40;99.90
12291;DHT22;6208;48.956;9.076;2023-11-21T02:59:00;9.50;99.90
12291;DHT22;6208;48.956;9.076;2023-11-21T03:01:44;9.40;99.90
12291;DHT22;6208;48.956;9.076;2023-11-21T03:04:28;9.50;99.90
12291;DHT22;6208;48.956;9.076;2023-11-21T03:07:12;9.40;99.90
12291;DHT22;6208;48.956;9.076;2023-11-21T03:12:41;9.40;99.90
12291;DHT22;6208;48.956;9.076;2023-11-21T03:15:26;9.50;99.90
12291;DHT22;6208;48.956;9.076;2023-11-21T03:23:39;9.50;99.90
12291;DHT22;6208;48.956;9.076;2023-11-21T03:26:24;9.40;99.90
12291;DHT22;6208;48.956;9.076;2023-11-21T03:29:07;9.60;99.90
12291;DHT22;6208;48.956;9.076;2023-11-21T03:31:51;9.50;99.90
12291;DHT22;6208;48.956;9.076;2023-11-21T03:34:35;9.60;99.90
12291;DHT22;6208;48.956;9.076;2023-11-21T03:37:36;9.10;99.90
12291;DHT22;6208;48.956;9.076;2023-11-21T03:40:22;9.40;99.90
12291;DHT22;6208;48.956;9.076;2023-11-21T03:43:06;9.20;99.90
12291;DHT22;6208;48.956;9.076;2023-11-21T03:45:50;9.70;99.90
12291;DHT22;6208;48.956;9.076;2023-11-21T03:48:34;9.20;99.90
12291;DHT22;6208;48.956;9.076;2023-11-21T03:51:19;9.20;99.90
12291;DHT22;6208;48.956;9.076;2023-11-21T03:54:03;9.00;99.90
12291;DHT22;6208;48.956;9.076;2023-11-21T03:56:48;9.30;99.90
12291;DHT22;6208;48.956;9.076;2023-11-21T03:59:32;9.30;99.90
12291;DHT22;6208;48.956;9.076;2023-11-21T04:02:16;9.40;99.90
12291;DHT22;6208;48.956;9.076;2023-11-21T04:07:47;9.20;99.90
12291;DHT22;6208;48.956;9.076;2023-11-21T04:10:31;9.30;99.90
12291;DHT22;6208;48.956;9.076;2023-11-21T04:13:15;9.30;99.90
12291;DHT22;6208;48.956;9.076;2023-11-21T04:18:46;8.90;99.90
12291;DHT22;6208;48.956;9.076;2023-11-21T04:21:30;9.30;99.90
12291;DHT22;6208;48.956;9.076;2023-11-21T04:24:16;9.50;99.90
12291;DHT22;6208;48.956;9.076;2023-11-21T04:29:44;9.30;99.90
12291;DHT22;6208;48.956;9.076;2023-11-21T04:32:29;9.20;99.90
12291;DHT22;6208;48.956;9.076;2023-11-21T04:35:13;9.30;99.90
12291;DHT22;6208;48.956;9.076;2023-11-21T04:37:57;9.50;99.90
12291;DHT22;6208;48.956;9.076;2023-11-21T04:40:41;9.40;99.90
12291;DHT22;6208;48.956;9.076;2023-11-21T04:43:25;9.20;99.90
12291;DHT22;6208;48.956;9.076;2023-11-21T04:46:09;9.30;99.90
12291;DHT22;6208;48.956;9.076;2023-11-21T04:48:54;9.20;99.90
12291;DHT22;6208;48.956;9.076;2023-11-21T04:54:22;9.20;99.90
12291;DHT22;6208;48.956;9.076;2023-11-21T04:59:51;9.10;99.90
12291;DHT22;6208;48.956;9.076;2023-11-21T05:02:35;9.30;99.90
12291;DHT22;6208;48.956;9.076;2023-11-21T05:05:19;9.30;99.90
12291;DHT22;6208;48.956;9.076;2023-11-21T05:10:50;9.30;99.90
12291;DHT22;6208;48.956;9.076;2023-11-21T05:21:50;9.30;99.90
12291;DHT22;6208;48.956;9.076;2023-11-21T05:27:19;9.40;99.90
12291;DHT22;6208;48.956;9.076;2023-11-21T05:30:04;9.30;99.90
12291;DHT22;6208;48.956;9.076;2023-11-21T05:32:49;9.30;99.90
12291;DHT22;6208;48.956;9.076;2023-11-21T05:35:33;9.30;99.90
12291;DHT22;6208;48.956;9.076;2023-11-21T05:38:17;9.10;99.90
12291;DHT22;6208;48.956;9.076;2023-11-21T05:41:02;9.20;99.90
12291;DHT22;6208;48.956;9.076;2023-11-21T05:43:48;9.30;99.90
12291;DHT22;6208;48.956;9.076;2023-11-21T05:46:32;9.20;99.90
12291;DHT22;6208;48.956;9.076;2023-11-21T05:49:19;9.30;99.90
12291;DHT22;6208;48.956;9.076;2023-11-21T06:00:23;9.40;99.90
12291;DHT22;6208;48.956;9.076;2023-11-21T06:05:54;9.30;99.90
12291;DHT22;6208;48.956;9.076;2023-11-21T06:08:41;9.30;99.90
12291;DHT22;6208;48.956;9.076;2023-11-21T06:11:25;9.10;99.90
12291;DHT22;6208;48.956;9.076;2023-11-21T06:19:40;8.90;99.90
12291;DHT22;6208;48.956;9.076;2023-11-21T06:25:09;9.10;99.90
12291;DHT22;6208;48.956;9.076;2023-11-21T06:33:23;9.00;99.90
12291;DHT22;6208;48.956;9.076;2023-11-21T06:36:08;9.10;99.90
12291;DHT22;6208;48.956;9.076;2023-11-21T06:38:55;9.20;99.90
12291;DHT22;6208;48.956;9.076;2023-11-21T06:41:39;9.10;99.90
12291;DHT22;6208;48.956;9.076;2023-11-21T06:44:23;9.10;99.90
12291;DHT22;6208;48.956;9.076;2023-11-21T06:49:52;9.00;99.90
12291;DHT22;6208;48.956;9.076;2023-11-21T06:52:36;9.10;99.90
12291;DHT22;6208;48.956;9.076;2023-11-21T06:55:21;8.90;99.90
12291;DHT22;6208;48.956;9.076;2023-11-21T07:03:36;9.00;99.90
12291;DHT22;6208;48.956;9.076;2023-11-21T07:06:21;9.50;99.90
12291;DHT22;6208;48.956;9.076;2023-11-21T07:11:52;9.20;99.90
12291;DHT22;6208;48.956;9.076;2023-11-21T07:14:37;9.10;99.90
12291;DHT22;6208;48.956;9.076;2023-11-21T07:17:23;9.10;99.90
12291;DHT22;6208;48.956;9.076;2023-11-21T07:22:52;9.40;99.90
12291;DHT22;6208;48.956;9.076;2023-11-21T07:25:36;9.20;99.90
12291;DHT22;6208;48.956;9.076;2023-11-21T07:31:05;9.20;99.90
12291;DHT22;6208;48.956;9.076;2023-11-21T07:33:50;9.20;99.90
12291;DHT22;6208;48.956;9.076;2023-11-21T07:36:34;9.20;99.90
12291;DHT22;6208;48.956;9.076;2023-11-21T07:39:18;9.20;99.90
12291;DHT22;6208;48.956;9.076;2023-11-21T07:42:03;9.00;99.90
12291;DHT22;6208;48.956;9.076;2023-11-21T07:44:48;9.00;99.90
12291;DHT22;6208;48.956;9.076;2023-11-21T07:47:34;9.00;99.90
12291;DHT22;6208;48.956;9.076;2023-11-21T07:50:18;9.10;99.90
12291;DHT22;6208;48.956;9.076;2023-11-21T07:53:02;9.20;99.90
12291;DHT22;6208;48.956;9.076;2023-11-21T07:55:49;9.00;99.90
12291;DHT22;6208;48.956;9.076;2023-11-21T07:58:37;9.00;99.90
12291;DHT22;6208;48.956;9.076;2023-11-21T08:01:22;9.00;99.90
12291;DHT22;6208;48.956;9.076;2023-11-21T08:06:52;9.00;99.90
12291;DHT22;6208;48.956;9.076;2023-11-21T08:12:20;9.00;99.90
12291;DHT22;6208;48.956;9.076;2023-11-21T08:15:05;9.20;99.90
12291;DHT22;6208;48.956;9.076;2023-11-21T08:17:50;9.10;99.90
12291;DHT22;6208;48.956;9.076;2023-11-21T08:23:20;9.10;99.90
12291;DHT22;6208;48.956;9.076;2023-11-21T08:26:05;9.20;99.90
12291;DHT22;6208;48.956;9.076;2023-11-21T08:28:49;9.20;99.90
12291;DHT22;6208;48.956;9.076;2023-11-21T08:31:36;9.20;99.90
12291;DHT22;6208;48.956;9.076;2023-11-21T08:34:21;9.40;99.90
12291;DHT22;6208;48.956;9.076;2023-11-21T08:37:06;9.30;99.90
12291;DHT22;6208;48.956;9.076;2023-11-21T08:39:50;9.40;99.90
12291;DHT22;6208;48.956;9.076;2023-11-21T08:42:35;9.40;99.90
12291;DHT22;6208;48.956;9.076;2023-11-21T08:45:21;9.50;99.90
12291;DHT22;6208;48.956;9.076;2023-11-21T08:48:06;9.40;99.90
12291;DHT22;6208;48.956;9.076;2023-11-21T08:53:35;10.00;99.90
12291;DHT22;6208;48.956;9.076;2023-11-21T08:56:19;9.40;99.90
12291;DHT22;6208;48.956;9.076;2023-11-21T09:04:33;9.30;99.90
12291;DHT22;6208;48.956;9.076;2023-11-21T09:07:18;9.60;99.90
12291;DHT22;6208;48.956;9.076;2023-11-21T09:10:04;9.50;99.90
12291;DHT22;6208;48.956;9.076;2023-11-21T09:12:50;9.50;99.90
12291;DHT22;6208;48.956;9.076;2023-11-21T09:15:36;9.60;99.90
12291;DHT22;6208;48.956;9.076;2023-11-21T09:21:05;9.50;99.90
12291;DHT22;6208;48.956;9.076;2023-11-21T09:23:49;9.50;99.90
12291;DHT22;6208;48.956;9.076;2023-11-21T09:26:33;9.50;99.90
12291;DHT22;6208;48.956;9.076;2023-11-21T09:29:18;9.50;99.90
12291;DHT22;6208;48.956;9.076;2023-11-21T09:32:03;9.80;99.90
12291;DHT22;6208;48.956;9.076;2023-11-21T09:34:48;10.10;99.90
12291;DHT22;6208;48.956;9.076;2023-11-21T09:37:33;9.70;99.90
12291;DHT22;6208;48.956;9.076;2023-11-21T09:40:21;9.60;99.90
12291;DHT22;6208;48.956;9.076;2023-11-21T09:43:08;9.80;99.90
12291;DHT22;6208;48.956;9.076;2023-11-21T09:46:04;9.60;99.90
12291;DHT22;6208;48.956;9.076;2023-11-21T09:48:51;9.70;99.90
12291;DHT22;6208;48.956;9.076;2023-11-21T09:51:42;9.60;99.90
12291;DHT22;6208;48.956;9.076;2023-11-21T09:54:27;9.70;99.90
12291;DHT22;6208;48.956;9.076;2023-11-21T09:59:58;9.70;99.90
12291;DHT22;6208;48.956;9.076;2023-11-21T10:02:44;9.80;99.90
12291;DHT22;6208;48.956;9.076;2023-11-21T10:05:28;9.90;99.90
12291;DHT22;6208;48.956;9.076;2023-11-21T10:10:57;9.90;99.90
12291;DHT22;6208;48.956;9.076;2023-11-21T10:13:45;9.90;99.90
12291;DHT22;6208;48.956;9.076;2023-11-21T10:16:31;9.90;99.90
12291;DHT22;6208;48.956;9.076;2023-11-21T10:19:18;9.90;99.90
12291;DHT22;6208;48.956;9.076;2023-11-21T10:22:05;10.10;99.90
12291;DHT22;6208;48.956;9.076;2023-11-21T10:24:51;10.10;99.90
12291;DHT22;6208;48.956;9.076;2023-11-21T10:27:36;10.00;99.90
12291;DHT22;6208;48.956;9.076;2023-11-21T10:30:20;10.10;99.90
12291;DHT22;6208;48.956;9.076;2023-11-21T10:33:05;9.90;99.90
12291;DHT22;6208;48.956;9.076;2023-11-21T10:35:50;10.30;99.90
12291;DHT22;6208;48.956;9.076;2023-11-21T10:38:42;10.10;99.90
12291;DHT22;6208;48.956;9.076;2023-11-21T10:41:27;10.20;99.90
12291;DHT22;6208;48.956;9.076;2023-11-21T10:47:00;10.20;99.90
12291;DHT22;6208;48.956;9.076;2023-11-21T10:49:48;10.20;99.90
12291;DHT22;6208;48.956;9.076;2023-11-21T10:52:32;10.20;99.90
12291;DHT22;6208;48.956;9.076;2023-11-21T11:03:36;10.50;99.90
12291;DHT22;6208;48.956;9.076;2023-11-21T11:06:21;10.50;99.90
12291;DHT22;6208;48.956;9.076;2023-11-21T11:09:06;10.50;99.90
12291;DHT22;6208;48.956;9.076;2023-11-21T11:11:52;10.60;99.90
12291;DHT22;6208;48.956;9.076;2023-11-21T11:14:41;10.50;99.90
12291;DHT22;6208;48.956;9.076;2023-11-21T11:17:25;10.50;99.90
12291;DHT22;6208;48.956;9.076;2023-11-21T11:20:13;10.50;99.90
12291;DHT22;6208;48.956;9.076;2023-11-21T11:26:50;10.50;99.90
12291;DHT22;6208;48.956;9.076;2023-11-21T11:29:43;10.50;99.90
12291;DHT22;6208;48.956;9.076;2023-11-21T11:32:40;10.40;99.90
12291;DHT22;6208;48.956;9.076;2023-11-21T11:35:50;10.50;99.90
12291;DHT22;6208;48.956;9.076;2023-11-21T11:41:27;10.60;99.90
12291;DHT22;6208;48.956;9.076;2023-11-21T11:44:46;10.60;99.90
12291;DHT22;6208;48.956;9.076;2023-11-21T11:47:32;10.60;99.90
12291;DHT22;6208;48.956;9.076;2023-11-21T11:50:21;10.70;99.90
12291;DHT22;6208;48.956;9.076;2023-11-21T11:53:13;10.60;99.90
12291;DHT22;6208;48.956;9.076;2023-11-21T11:56:27;10.70;99.90
12291;DHT22;6208;48.956;9.076;2023-11-21T12:01:57;10.80;99.90
12291;DHT22;6208;48.956;9.076;2023-11-21T12:04:41;10.90;99.90
12291;DHT22;6208;48.956;9.076;2023-11-21T12:07:42;10.90;99.90
12291;DHT22;6208;48.956;9.076;2023-11-21T12:10:28;10.90;99.90
12291;DHT22;6208;48.956;9.076;2023-11-21T12:15:57;10.90;99.90
12291;DHT22;6208;48.956;9.076;2023-11-21T12:18:42;10.90;99.90
12291;DHT22;6208;48.956;9.076;2023-11-21T12:21:27;10.80;99.90
12291;DHT22;6208;48.956;9.076;2023-11-21T12:26:57;10.60;99.90
12291;DHT22;6208;48.956;9.076;2023-11-21T12:29:41;10.70;99.90
12291;DHT22;6208;48.956;9.076;2023-11-21T12:32:25;10.50;99.90
12291;DHT22;6208;48.956;9.076;2023-11-21T12:35:11;10.50;99.90
12291;DHT22;6208;48.956;9.076;2023-11-21T12:37:56;10.60;99.90
12291;DHT22;6208;48.956;9.076;2023-11-21T12:40:44;10.50;99.90
12291;DHT22;6208;48.956;9.076;2023-11-21T12:43:29;10.40;99.90
12291;DHT22;6208;48.956;9.076;2023-11-21T12:46:14;10.40;99.90
12291;DHT22;6208;48.956;9.076;2023-11-21T12:51:46;10.40;99.90
12291;DHT22;6208;48.956;9.076;2023-11-21T12:54:30;10.20;99.90
12291;DHT22;6208;48.956;9.076;2023-11-21T12:59:59;10.40;99.90
12291;DHT22;6208;48.956;9.076;2023-11-21T13:02:44;10.50;99.90
12291;DHT22;6208;48.956;9.076;2023-11-21T13:05:33;10.70;99.90
12291;DHT22;6208;48.956;9.076;2023-11-21T13:08:18;10.40;99.90
12291;DHT22;6208;48.956;9.076;2023-11-21T13:11:05;10.50;99.90
12291;DHT22;6208;48.956;9.076;2023-11-21T13:13:51;10.50;99.90
12291;DHT22;6208;48.956;9.076;2023-11-21T13:19:23;10.50;99.90
12291;DHT22;6208;48.956;9.076;2023-11-21T13:22:08;10.50;99.90
12291;DHT22;6208;48.956;9.076;2023-11-21T13:27:39;10.70;99.90
12291;DHT22;6208;48.956;9.076;2023-11-21T13:30:24;10.70;99.90
12291;DHT22;6208;48.956;9.076;2023-11-21T13:36:06;10.80;99.90
12291;DHT22;6208;48.956;9.076;2023-11-21T13:38:53;10.80;99.90
12291;DHT22;6208;48.956;9.076;2023-11-21T13:41:37;10.90;99.90
12291;DHT22;6208;48.956;9.076;2023-11-21T13:50:04;10.70;99.90
12291;DHT22;6208;48.956;9.076;2023-11-21T13:52:53;11.10;99.90
12291;DHT22;6208;48.956;9.076;2023-11-21T13:55:37;10.80;99.90
12291;DHT22;6208;48.956;9.076;2023-11-21T13:58:24;10.70;99.90
12291;DHT22;6208;48.956;9.076;2023-11-21T14:01:25;10.70;99.90
12291;DHT22;6208;48.956;9.076;2023-11-21T14:07:00;10.70;99.90
12291;DHT22;6208;48.956;9.076;2023-11-21T14:15:28;10.70;99.90
12291;DHT22;6208;48.956;9.076;2023-11-21T14:29:17;10.40;99.90
12291;DHT22;6208;48.956;9.076;2023-11-21T14:32:04;10.40;99.90
12291;DHT22;6208;48.956;9.076;2023-11-21T14:34:49;10.40;99.90
12291;DHT22;6208;48.956;9.076;2023-11-21T14:40:19;10.20;99.90
12291;DHT22;6208;48.956;9.076;2023-11-21T14:43:08;10.10;99.90
12291;DHT22;6208;48.956;9.076;2023-11-21T14:48:36;10.00;99.90
12291;DHT22;6208;48.956;9.076;2023-11-21T14:51:28;10.00;99.90
12291;DHT22;6208;48.956;9.076;2023-11-21T14:57:10;9.90;99.90
12291;DHT22;6208;48.956;9.076;2023-11-21T15:00:05;10.00;99.90
12291;DHT22;6208;48.956;9.076;2023-11-21T15:02:53;9.80;99.90
12291;DHT22;6208;48.956;9.076;2023-11-21T15:05:37;9.90;99.90
12291;DHT22;6208;48.956;9.076;2023-11-21T15:08:24;9.80;99.90
12291;DHT22;6208;48.956;9.076;2023-11-21T15:14:00;10.00;99.90
12291;DHT22;6208;48.956;9.076;2023-11-21T15:16:50;10.00;99.90
12291;DHT22;6208;48.956;9.076;2023-11-21T15:19:37;10.40;99.90
12291;DHT22;6208;48.956;9.076;2023-11-21T15:22:22;10.10;99.90
12291;DHT22;6208;48.956;9.076;2023-11-21T15:25:07;10.10;99.90
12291;DHT22;6208;48.956;9.076;2023-11-21T15:27:53;10.10;99.90
12291;DHT22;6208;48.956;9.076;2023-11-21T15:30:37;9.90;99.90
12291;DHT22;6208;48.956;9.076;2023-11-21T15:36:06;9.90;99.90
12291;DHT22;6208;48.956;9.076;2023-11-21T15:38:53;10.00;99.90
12291;DHT22;6208;48.956;9.076;2023-11-21T15:41:38;9.90;99.90
12291;DHT22;6208;48.956;9.076;2023-11-21T15:44:24;9.90;99.90
12291;DHT22;6208;48.956;9.076;2023-11-21T15:47:10;9.90;99.90
12291;DHT22;6208;48.956;9.076;2023-11-21T15:49:54;9.90;99.90
12291;DHT22;6208;48.956;9.076;2023-11-21T15:52:38;9.90;99.90
12291;DHT22;6208;48.956;9.076;2023-11-21T15:55:24;9.90;99.90
12291;DHT22;6208;48.956;9.076;2023-11-21T15:58:09;9.90;99.90
12291;DHT22;6208;48.956;9.076;2023-11-21T16:00:53;9.90;99.90
12291;DHT22;6208;48.956;9.076;2023-11-21T16:03:37;9.90;99.90
12291;DHT22;6208;48.956;9.076;2023-11-21T16:09:06;9.70;99.90
12291;DHT22;6208;48.956;9.076;2023-11-21T16:12:01;9.80;99.90
12291;DHT22;6208;48.956;9.076;2023-11-21T16:14:49;9.70;99.90
12291;DHT22;6208;48.956;9.076;2023-11-21T16:17:35;9.60;99.90
12291;DHT22;6208;48.956;9.076;2023-11-21T16:23:04;9.60;99.90
12291;DHT22;6208;48.956;9.076;2023-11-21T16:28:38;9.50;99.90
12291;DHT22;6208;48.956;9.076;2023-11-21T16:31:25;9.50;99.90
12291;DHT22;6208;48.956;9.076;2023-11-21T16:34:14;9.50;99.90
12291;DHT22;6208;48.956;9.076;2023-11-21T16:36:59;9.30;99.90
12291;DHT22;6208;48.956;9.076;2023-11-21T16:42:27;9.30;99.90
12291;DHT22;6208;48.956;9.076;2023-11-21T16:47:59;9.30;99.90
12291;DHT22;6208;48.956;9.076;2023-11-21T16:50:43;9.10;99.90
12291;DHT22;6208;48.956;9.076;2023-11-21T16:53:28;9.70;99.90
12291;DHT22;6208;48.956;9.076;2023-11-21T16:56:12;9.10;99.90
12291;DHT22;6208;48.956;9.076;2023-11-21T16:58:57;9.10;99.90
12291;DHT22;6208;48.956;9.076;2023-11-21T17:01:41;9.40;99.90
12291;DHT22;6208;48.956;9.076;2023-11-21T17:04:25;9.00;99.90
12291;DHT22;6208;48.956;9.076;2023-11-21T17:07:09;9.00;99.90
12291;DHT22;6208;48.956;9.076;2023-11-21T17:09:54;9.10;99.90
12291;DHT22;6208;48.956;9.076;2023-11-21T17:12:39;9.00;99.90
12291;DHT22;6208;48.956;9.076;2023-11-21T17:18:09;9.00;99.90
12291;DHT22;6208;48.956;9.076;2023-11-21T17:20:53;9.00;99.90
12291;DHT22;6208;48.956;9.076;2023-11-21T17:29:07;8.90;99.90
12291;DHT22;6208;48.956;9.076;2023-11-21T17:31:54;8.80;99.90
12291;DHT22;6208;48.956;9.076;2023-11-21T17:34:38;9.10;99.90
12291;DHT22;6208;48.956;9.076;2023-11-21T17:42:52;9.00;99.90
12291;DHT22;6208;48.956;9.076;2023-11-21T17:45:36;9.00;99.90
12291;DHT22;6208;48.956;9.076;2023-11-21T17:51:06;8.80;99.90
12291;DHT22;6208;48.956;9.076;2023-11-21T17:53:52;9.00;99.90
12291;DHT22;6208;48.956;9.076;2023-11-21T17:56:41;8.80;99.90
12291;DHT22;6208;48.956;9.076;2023-11-21T18:02:11;8.90;99.90
12291;DHT22;6208;48.956;9.076;2023-11-21T18:13:09;8.80;99.90
12291;DHT22;6208;48.956;9.076;2023-11-21T18:15:54;8.80;99.90
12291;DHT22;6208;48.956;9.076;2023-11-21T18:18:38;8.90;99.90
12291;DHT22;6208;48.956;9.076;2023-11-21T18:21:23;8.90;99.90
12291;DHT22;6208;48.956;9.076;2023-11-21T18:24:08;8.80;99.90
12291;DHT22;6208;48.956;9.076;2023-11-21T18:26:52;8.90;99.90
12291;DHT22;6208;48.956;9.076;2023-11-21T18:29:36;9.10;99.90
12291;DHT22;6208;48.956;9.076;2023-11-21T18:32:20;8.80;99.90
12291;DHT22;6208;48.956;9.076;2023-11-21T18:35:06;9.00;99.90
12291;DHT22;6208;48.956;9.076;2023-11-21T18:40:36;8.90;99.90
12291;DHT22;6208;48.956;9.076;2023-11-21T18:43:20;9.00;99.90
12291;DHT22;6208;48.956;9.076;2023-11-21T18:48:49;9.10;99.90
12291;DHT22;6208;48.956;9.076;2023-11-21T18:54:20;9.10;99.90
12291;DHT22;6208;48.956;9.076;2023-11-21T18:57:04;9.20;99.90
12291;DHT22;6208;48.956;9.076;2023-11-21T18:59:48;9.00;99.90
12291;DHT22;6208;48.956;9.076;2023-11-21T19:02:34;9.30;99.90
12291;DHT22;6208;48.956;9.076;2023-11-21T19:05:18;9.10;99.90
12291;DHT22;6208;48.956;9.076;2023-11-21T19:10:49;9.20;99.90
12291;DHT22;6208;48.956;9.076;2023-11-21T19:16:19;9.10;99.90
12291;DHT22;6208;48.956;9.076;2023-11-21T19:19:05;9.10;99.90
12291;DHT22;6208;48.956;9.076;2023-11-21T19:21:50;9.20;99.90
12291;DHT22;6208;48.956;9.076;2023-11-21T19:30:05;9.10;99.90
12291;DHT22;6208;48.956;9.076;2023-11-21T19:35:36;9.10;99.90
12291;DHT22;6208;48.956;9.076;2023-11-21T19:41:17;9.00;99.90
12291;DHT22;6208;48.956;9.076;2023-11-21T19:44:02;9.30;99.90
12291;DHT22;6208;48.956;9.076;2023-11-21T19:52:17;9.20;99.90
12291;DHT22;6208;48.956;9.076;2023-11-21T19:55:02;8.90;99.90
12291;DHT22;6208;48.956;9.076;2023-11-21T19:57:47;9.20;99.90
12291;DHT22;6208;48.956;9.076;2023-11-21T20:03:16;9.10;99.90
12291;DHT22;6208;48.956;9.076;2023-11-21T20:06:03;9.20;99.90
12291;DHT22;6208;48.956;9.076;2023-11-21T20:08:48;9.00;99.90
12291;DHT22;6208;48.956;9.076;2023-11-21T20:14:19;9.10;99.90
12291;DHT22;6208;48.956;9.076;2023-11-21T20:17:03;9.10;99.90
12291;DHT22;6208;48.956;9.076;2023-11-21T20:25:19;9.00;99.90
12291;DHT22;6208;48.956;9.076;2023-11-21T20:28:04;9.10;99.90
12291;DHT22;6208;48.956;9.076;2023-11-21T20:30:52;9.40;99.90
12291;DHT22;6208;48.956;9.076;2023-11-21T20:33:37;9.10;99.90
12291;DHT22;6208;48.956;9.076;2023-11-21T20:39:05;8.90;99.90
12291;DHT22;6208;48.956;9.076;2023-11-21T20:41:50;8.90;99.90
12291;DHT22;6208;48.956;9.076;2023-11-21T20:50:03;8.80;99.90
12291;DHT22;6208;48.956;9.076;2023-11-21T20:52:48;9.40;99.90
12291;DHT22;6208;48.956;9.076;2023-11-21T20:58:17;9.50;99.90
12291;DHT22;6208;48.956;9.076;2023-11-21T21:01:02;8.80;99.90
12291;DHT22;6208;48.956;9.076;2023-11-21T21:03:46;8.90;99.90
12291;DHT22;6208;48.956;9.076;2023-11-21T21:09:15;8.90;99.90
12291;DHT22;6208;48.956;9.076;2023-11-21T21:11:59;8.80;99.90
12291;DHT22;6208;48.956;9.076;2023-11-21T21:14:43;8.80;99.90
12291;DHT22;6208;48.956;9.076;2023-11-21T21:17:27;9.30;99.90
12291;DHT22;6208;48.956;9.076;2023-11-21T21:20:14;8.70;99.90
12291;DHT22;6208;48.956;9.076;2023-11-21T21:22:59;8.80;99.90
12291;DHT22;6208;48.956;9.076;2023-11-21T21:25:43;8.80;99.90
12291;DHT22;6208;48.956;9.076;2023-11-21T21:28:28;8.90;99.90
12291;DHT22;6208;48.956;9.076;2023-11-21T21:33:56;8.90;99.90
12291;DHT22;6208;48.956;9.076;2023-11-21T21:36:40;8.80;99.90
12291;DHT22;6208;48.956;9.076;2023-11-21T21:39:26;8.80;99.90
12291;DHT22;6208;48.956;9.076;2023-11-21T21:42:10;8.70;99.90
12291;DHT22;6208;48.956;9.076;2023-11-21T21:44:55;8.90;99.90
12291;DHT22;6208;48.956;9.076;2023-11-21T21:47:39;8.70;99.90
12291;DHT22;6208;48.956;9.076;2023-11-21T21:50:23;8.70;99.90
12291;DHT22;6208;48.956;9.076;2023-11-21T21:53:09;9.40;99.90
12291;DHT22;6208;48.956;9.076;2023-11-21T21:58:41;8.70;99.90
12291;DHT22;6208;48.956;9.076;2023-11-21T22:01:25;8.70;99.90
12291;DHT22;6208;48.956;9.076;2023-11-21T22:04:10;9.00;99.90
12291;DHT22;6208;48.956;9.076;2023-11-21T22:06:54;8.80;99.90
12291;DHT22;6208;48.956;9.076;2023-11-21T22:12:22;8.90;99.90
12291;DHT22;6208;48.956;9.076;2023-11-21T22:15:07;8.90;99.90
12291;DHT22;6208;48.956;9.076;2023-11-21T22:17:52;8.80;99.90
12291;DHT22;6208;48.956;9.076;2023-11-21T22:26:06;8.90;99.90
12291;DHT22;6208;48.956;9.076;2023-11-21T22:28:51;8.70;99.90
12291;DHT22;6208;48.956;9.076;2023-11-21T22:31:42;8.80;99.90
12291;DHT22;6208;48.956;9.076;2023-11-21T22:37:12;8.70;99.90
12291;DHT22;6208;48.956;9.076;2023-11-21T22:39:56;8.80;99.90
12291;DHT22;6208;48.956;9.076;2023-11-21T22:45:25;8.80;99.90
12291;DHT22;6208;48.956;9.076;2023-11-21T22:48:09;8.70;99.90
12291;DHT22;6208;48.956;9.076;2023-11-21T22:50:53;8.70;99.90
12291;DHT22;6208;48.956;9.076;2023-11-21T22:53:38;8.60;99.90
12291;DHT22;6208;48.956;9.076;2023-11-21T22:56:23;8.80;99.90
12291;DHT22;6208;48.956;9.076;2023-11-21T22:59:06;8.90;99.90
12291;DHT22;6208;48.956;9.076;2023-11-21T23:01:51;8.90;99.90
12291;DHT22;6208;48.956;9.076;2023-11-21T23:04:36;8.80;99.90
12291;DHT22;6208;48.956;9.076;2023-11-21T23:07:20;8.80;99.90
12291;DHT22;6208;48.956;9.076;2023-11-21T23:10:06;12.30;99.90
12291;DHT22;6208;48.956;9.076;2023-11-21T23:12:53;8.80;99.90
12291;DHT22;6208;48.956;9.076;2023-11-21T23:18:30;9.00;99.90
12291;DHT22;6208;48.956;9.076;2023-11-21T23:21:15;8.80;99.90
12291;DHT22;6208;48.956;9.076;2023-11-21T23:24:00;8.80;99.90
12291;DHT22;6208;48.956;9.076;2023-11-21T23:29:35;8.70;99.90
12291;DHT22;6208;48.956;9.076;2023-11-21T23:32:22;8.20;99.90
12291;DHT22;6208;48.956;9.076;2023-11-21T23:35:06;8.50;99.90
12291;DHT22;6208;48.956;9.076;2023-11-21T23:37:51;8.10;99.90